Saturday, January 20, 2018, 10:03 AM EST
Back to Local

KBTV, Burlington International

Location: South Burlington, VT, United States Lat: 44.467
Local Time: 10:03 AM EST (15:03 GMT) Lon: -73.15
Time Zone: US/Eastern Elev: 334 ft

Show me the last for .
Show Coded

Time T Td Feel RH Dir Speed Gust Alt SLP Vis Weather Sky Remarks
2018-01-20 08:54 36 22 26 56 190° 16 - 29.64 29.65 10 FEW050 FEW090 BKN110 None
2018-01-20 07:54 34 21 24 58 190° 15 - 29.64 29.65 10 FEW090 BKN100 None
2018-01-20 06:54 34 21 21 58 190° 20 26 29.61 29.62 10 SCT090 BKN130 Snow depth: 4"
6-hr Min Temp (7am): 30.9°F
6-hr Max Temp (7am): 35.1°F
2018-01-20 05:54 35 21 26 56 200° 13 - 29.58 29.59 10 BKN130 None
2018-01-20 04:54 35 21 22 56 190° 20 26 29.56 29.57 10 CLR None
2018-01-20 03:54 33 20 23 58 200° 15 - 29.61 29.62 10 CLR None
2018-01-20 01:54 32 20 19 60 180° 17 25 29.67 29.68 10 BKN085 None
2018-01-20 00:54 31 19 18 60 190° 15 22 29.67 29.69 10 SCT075 BKN110 6-hr Min Temp (1am): 27.0°F
6-hr Max Temp (1am): 30.9°F
2018-01-19 23:54 30 19 16 63 180° 17 24 29.70 29.72 10 CLR 24-hr Min Temp (12am): 24.1°F
24-hr Max Temp (12am): 30.0°F
2018-01-19 22:54 29 19 16 66 190° 15 21 29.75 29.76 10 BKN095 None
2018-01-19 21:54 28 19 20 68 180° 8 - 29.79 29.80 10 CLR None
2018-01-19 20:54 27 19 17 71 180° 12 - 29.80 29.82 10 FEW120 None
2018-01-19 19:54 28 19 17 68 180° 13 - 29.83 29.84 10 OVC036 None
2018-01-19 18:54 28 19 18 68 180° 12 - 29.85 29.87 10 OVC035 6-hr Precip Total (7pm): 0.00"
Snow depth: 4"
6-hr Min Temp (7pm): 27.0°F
6-hr Max Temp (7pm): 28.0°F
2018-01-19 17:54 28 18 19 65 190° 9 - 29.85 29.87 10 OVC036 None
2018-01-19 16:54 28 18 19 65 200° 10 - 29.86 29.87 10 OVC034 None
2018-01-19 15:54 28 18 17 65 180° 15 - 29.85 29.87 10 OVC034 1-hr Precip Total: Trace
6-hr Precip Total (4pm): 0.00"
2018-01-19 14:54 28 18 19 65 200° 10 - 29.88 29.89 9 -SN OVC034 1-hr Precip Total: Trace
2018-01-19 13:54 27 18 18 68 220° 9 - 29.89 29.90 10 OVC032 None
2018-01-19 12:54 28 18 18 65 200° 12 - 29.88 29.90 10 OVC037 Snow depth: 4"
6-hr Min Temp (1pm): 24.1°F
6-hr Max Temp (1pm): 28.0°F
2018-01-19 11:54 27 18 16 68 200° 14 - 29.90 29.91 9 OVC036 None
2018-01-19 10:54 26 18 16 70 180° 10 - 29.92 29.93 8 OVC031 None

Support USWX by starting your Amazon purchase here.